createdAt,value
2023-02-26T00:00:00.000Z,6.92
2023-02-26T00:15:00.000Z,4.99
2023-02-26T00:30:00.000Z,5.07
2023-02-26T00:45:00.000Z,4.2
2023-02-26T01:00:00.000Z,5.93
2023-02-26T01:15:00.000Z,6.92
2023-02-26T01:30:00.000Z,6.44
2023-02-26T01:45:00.000Z,7.22
2023-02-26T02:00:00.000Z,5.74
2023-02-26T02:15:00.000Z,6.27
2023-02-26T02:30:00.000Z,6.87
2023-02-26T02:45:00.000Z,6.93
2023-02-26T03:00:00.000Z,7.36
2023-02-26T03:15:00.000Z,7.13
2023-02-26T03:30:00.000Z,7.64
2023-02-26T03:45:00.000Z,7.49
2023-02-26T04:00:00.000Z,7.48
2023-02-26T04:15:00.000Z,7.24
2023-02-26T04:30:00.000Z,7.51
2023-02-26T04:45:00.000Z,6.95
2023-02-26T05:00:00.000Z,6.68
2023-02-26T05:15:00.000Z,7.13
2023-02-26T05:30:00.000Z,7.48
2023-02-26T05:45:00.000Z,7.22
2023-02-26T06:00:00.000Z,7.09
2023-02-26T06:15:00.000Z,7.15
2023-02-26T06:30:00.000Z,7.35
2023-02-26T06:45:00.000Z,8.11
2023-02-26T07:00:00.000Z,7.34
2023-02-26T07:15:00.000Z,8.08
2023-02-26T07:30:00.000Z,9.89
2023-02-26T07:45:00.000Z,8.4
2023-02-26T08:00:00.000Z,8.65
2023-02-26T08:15:00.000Z,12.4
2023-02-26T08:30:00.000Z,10.74
2023-02-26T08:45:00.000Z,11.72
2023-02-26T09:00:00.000Z,10.38
2023-02-26T09:15:00.000Z,10.27
2023-02-26T09:30:00.000Z,11.2
2023-02-26T09:45:00.000Z,8.27
2023-02-26T10:00:00.000Z,16.94
2023-02-26T10:15:00.000Z,16.58
2023-02-26T10:30:00.000Z,8.96
2023-02-26T10:45:00.000Z,5.79
2023-02-26T11:00:00.000Z,4.33
2023-02-26T11:15:00.000Z,6.76
2023-02-26T11:30:00.000Z,6.36
2023-02-26T11:45:00.000Z,7.23
2023-02-26T12:00:00.000Z,9.47
2023-02-26T12:15:00.000Z,5.84
2023-02-26T12:30:00.000Z,6.84
2023-02-26T12:45:00.000Z,8.35
2023-02-26T13:00:00.000Z,6.73
2023-02-26T13:15:00.000Z,6.69
2023-02-26T13:30:00.000Z,7.88
2023-02-26T13:45:00.000Z,4.53
2023-02-26T14:00:00.000Z,2.6
2023-02-26T14:15:00.000Z,2.83
2023-02-26T14:30:00.000Z,4.02
2023-02-26T14:45:00.000Z,4.11
2023-02-26T15:00:00.000Z,4.55
2023-02-26T15:15:00.000Z,8.93
2023-02-26T15:30:00.000Z,8.34
2023-02-26T15:45:00.000Z,9.36
2023-02-26T16:00:00.000Z,6.01
2023-02-26T16:15:00.000Z,5.35
2023-02-26T16:30:00.000Z,7.34
2023-02-26T16:45:00.000Z,6.62
2023-02-26T17:00:00.000Z,9.01
2023-02-26T17:15:00.000Z,10.8
2023-02-26T17:30:00.000Z,14.52
2023-02-26T17:45:00.000Z,12.19
2023-02-26T18:00:00.000Z,10.16
2023-02-26T18:15:00.000Z,7.64
2023-02-26T18:30:00.000Z,14.58
2023-02-26T18:45:00.000Z,11.97
2023-02-26T19:00:00.000Z,11.97
2023-02-26T19:15:00.000Z,9.75
2023-02-26T19:30:00.000Z,7.68
2023-02-26T19:45:00.000Z,7.92
2023-02-26T20:00:00.000Z,7.16
2023-02-26T20:15:00.000Z,7.53
2023-02-26T20:30:00.000Z,9.17
2023-02-26T20:45:00.000Z,9.14
2023-02-26T21:00:00.000Z,8.67
2023-02-26T21:15:00.000Z,8.66
2023-02-26T21:30:00.000Z,8.5
2023-02-26T21:45:00.000Z,9.09
2023-02-26T22:00:00.000Z,7.38
2023-02-26T22:15:00.000Z,7.31
2023-02-26T22:30:00.000Z,6.82
2023-02-26T22:45:00.000Z,7.04
2023-02-26T23:00:00.000Z,6.96
2023-02-26T23:15:00.000Z,6.36
2023-02-26T23:30:00.000Z,6.85
2023-02-26T23:45:00.000Z,7.12
